Time;durP1;ratioP1;P1;durP2;ratioP2;P2;SDS_P1;SDS_P2;PMS_P1;PMS_P2;Temp;Humidity;BMP_temperature;BMP_pressure;BME280_temperature;BME280_humidity;BME280_pressure;Samples;Min_cycle;Max_cycle;Signal;HPM_P1;HPM_P2
2021/11/30 00:01:05;;;;;;;8.82;2.10;;;;;;;4.99;77.61;100931.50;5053625;28;20020;-69
2021/11/30 00:03:31;;;;;;;9.40;2.33;;;;;;;4.96;79.27;100917.22;5035471;28;20087;-69
2021/11/30 00:05:56;;;;;;;7.75;2.00;;;;;;;4.95;77.44;100925.84;5053239;28;20025;-69
2021/11/30 00:08:27;;;;;;;6.60;1.85;;;;;;;5.01;76.04;100905.75;5035755;28;20419;-70
2021/11/30 00:10:54;;;;;;;10.77;2.45;;;;;;;5.01;75.07;100898.84;5035689;28;20017;-70
2021/11/30 00:13:21;;;;;;;7.85;2.45;;;;;;;4.97;75.47;100895.75;5053510;28;20029;-70
2021/11/30 00:15:48;;;;;;;16.40;2.45;;;;;;;5.01;76.31;100895.50;5035560;28;20086;-71
2021/11/30 00:18:14;;;;;;;7.63;2.53;;;;;;;4.95;78.21;100886.66;5053134;28;20049;-70
2021/11/30 00:20:42;;;;;;;12.57;2.20;;;;;;;5.00;78.42;100883.63;5053012;28;20064;-70
2021/11/30 00:23:08;;;;;;;11.07;2.33;;;;;;;4.86;78.66;100878.09;5053103;28;20025;-70
2021/11/30 00:25:34;;;;;;;5.15;2.17;;;;;;;4.90;77.69;100871.72;5052836;28;20032;-70
2021/11/30 00:28:00;;;;;;;6.80;1.70;;;;;;;4.96;79.77;100872.88;5035103;28;20102;-70
2021/11/30 00:30:26;;;;;;;7.75;1.52;;;;;;;4.84;79.99;100861.25;5035405;28;20028;-70
2021/11/30 00:32:53;;;;;;;8.88;1.77;;;;;;;4.89;80.32;100853.91;5053322;28;20017;-71
2021/11/30 00:35:18;;;;;;;6.82;1.52;;;;;;;4.75;80.71;100858.63;5053322;28;20099;-70
2021/11/30 00:37:44;;;;;;;9.93;1.67;;;;;;;4.76;80.97;100846.63;5035414;28;20025;-71
2021/11/30 00:40:10;;;;;;;5.95;1.50;;;;;;;4.70;80.85;100840.34;5035401;28;20025;-71
2021/11/30 00:42:36;;;;;;;6.28;2.00;;;;;;;4.69;82.15;100843.03;5053212;28;20387;-70
2021/11/30 00:45:05;;;;;;;6.50;1.70;;;;;;;4.69;82.70;100828.50;5053174;28;20486;-69
2021/11/30 00:47:31;;;;;;;5.32;1.45;;;;;;;4.60;82.66;100831.09;5035244;28;20388;-70
2021/11/30 00:49:58;;;;;;;7.70;1.95;;;;;;;4.64;82.99;100823.00;5035309;28;20021;-69
2021/11/30 00:52:24;;;;;;;9.77;1.85;;;;;;;4.57;83.40;100811.72;5035304;28;20025;-70
2021/11/30 00:54:49;;;;;;;10.60;1.48;;;;;;;4.60;83.93;100808.06;5035119;28;20440;-70
2021/11/30 00:57:16;;;;;;;5.15;1.77;;;;;;;4.61;84.92;100804.59;5035244;28;20016;-70
2021/11/30 00:59:42;;;;;;;8.05;2.13;;;;;;;4.61;84.45;100807.13;5053077;28;20060;-70
2021/11/30 01:02:07;;;;;;;5.40;2.10;;;;;;;4.60;84.74;100798.63;5053587;28;20098;-70
2021/11/30 01:04:33;;;;;;;6.15;2.00;;;;;;;4.54;84.94;100799.22;5035116;28;20079;-70
2021/11/30 01:06:58;;;;;;;12.13;2.70;;;;;;;4.45;86.17;100806.03;5035122;28;20021;-70
2021/11/30 01:09:24;;;;;;;8.48;2.10;;;;;;;4.35;87.15;100805.31;5035139;28;20468;-70
2021/11/30 01:11:50;;;;;;;6.90;2.05;;;;;;;4.37;87.56;100798.28;5035044;28;20031;-69
2021/11/30 01:14:15;;;;;;;9.45;2.15;;;;;;;4.29;88.21;100799.03;5052920;28;20490;-70
2021/11/30 01:16:41;;;;;;;7.60;2.03;;;;;;;4.29;88.79;100795.66;5054117;28;20044;-70
2021/11/30 01:19:07;;;;;;;7.05;2.08;;;;;;;4.29;89.82;100798.22;5038858;28;20025;-71
2021/11/30 01:21:33;;;;;;;7.97;2.30;;;;;;;4.28;90.16;100788.91;5056910;28;20029;-70
2021/11/30 01:23:59;;;;;;;8.57;2.55;;;;;;;4.25;90.31;100782.34;5038721;28;20033;-71
2021/11/30 01:26:25;;;;;;;5.97;2.20;;;;;;;4.19;91.85;100782.13;5056505;28;20106;-71
2021/11/30 01:28:50;;;;;;;11.52;2.47;;;;;;;4.16;92.16;100775.53;5056463;28;20029;-70
2021/11/30 01:31:15;;;;;;;4.70;1.92;;;;;;;4.09;91.72;100771.97;5056476;28;20376;-70
2021/11/30 01:33:41;;;;;;;10.27;2.55;;;;;;;4.14;91.94;100768.94;5038463;28;20028;-70
2021/11/30 01:36:06;;;;;;;9.27;2.42;;;;;;;4.14;92.22;100769.75;5038499;28;20021;-71
2021/11/30 01:38:32;;;;;;;8.15;2.60;;;;;;;4.13;92.65;100777.59;5038434;28;20017;-71
2021/11/30 01:41:00;;;;;;;8.73;3.05;;;;;;;4.20;92.80;100770.94;5056243;28;20032;-71
2021/11/30 01:43:28;;;;;;;5.93;2.38;;;;;;;4.13;92.73;100769.91;5039075;28;20400;-71
2021/11/30 01:46:11;;;;;;;9.68;2.70;;;;;;;4.15;93.04;100775.69;5056155;28;20056;-70
2021/11/30 01:51:21;;;;;;;6.90;2.35;;;;;;;4.06;92.94;100746.69;5056990;28;20075;-70
2021/11/30 01:53:48;;;;;;;6.93;2.40;;;;;;;4.03;93.18;100734.97;5056013;28;20049;-70
2021/11/30 01:56:13;;;;;;;5.97;2.80;;;;;;;3.89;93.56;100725.25;5038075;28;20028;-70
2021/11/30 01:58:38;;;;;;;5.07;3.00;;;;;;;3.97;93.54;100738.13;5056030;28;20369;-70
2021/11/30 02:01:04;;;;;;;6.70;3.38;;;;;;;4.01;93.93;100739.44;5038108;28;20087;-71
2021/11/30 02:03:29;;;;;;;6.95;3.70;;;;;;;3.86;93.23;100723.00;5055804;28;20490;-71
2021/11/30 02:05:54;;;;;;;8.05;3.92;;;;;;;3.89;93.59;100721.91;5055696;28;20029;-71
2021/11/30 02:08:20;;;;;;;7.68;3.85;;;;;;;3.83;94.11;100725.84;5037834;28;20070;-70
2021/11/30 02:10:45;;;;;;;6.50;4.20;;;;;;;3.91;93.85;100725.09;5037863;28;20031;-71
2021/11/30 02:13:10;;;;;;;8.18;4.88;;;;;;;3.88;93.63;100721.06;5055965;28;20108;-71
2021/11/30 02:15:44;;;;;;;7.45;4.75;;;;;;;3.89;93.91;100722.69;5055571;28;20059;-71
2021/11/30 02:18:13;;;;;;;6.78;4.63;;;;;;;3.85;94.47;100711.13;5055331;28;20060;-71
2021/11/30 02:20:42;;;;;;;7.75;5.30;;;;;;;3.87;94.51;100703.34;5055396;28;20063;-71
2021/11/30 02:23:15;;;;;;;8.63;5.22;;;;;;;3.95;94.80;100705.97;5055505;28;20020;-71
2021/11/30 02:25:42;;;;;;;9.07;5.45;;;;;;;3.89;94.85;100702.25;5037539;28;20067;-71
2021/11/30 02:28:07;;;;;;;6.13;4.35;;;;;;;3.84;95.45;100699.31;5054891;28;20036;-71
2021/11/30 02:30:32;;;;;;;8.82;5.10;;;;;;;3.92;95.25;100686.63;5037464;28;20017;-70
2021/11/30 02:33:01;;;;;;;7.20;4.65;;;;;;;3.98;95.44;100680.13;5037776;28;20051;-71
2021/11/30 02:35:26;;;;;;;6.43;4.80;;;;;;;4.03;94.99;100671.06;5037461;28;20052;-71
2021/11/30 02:37:57;;;;;;;5.85;4.32;;;;;;;4.02;95.00;100661.75;5055199;28;20444;-71
2021/11/30 02:40:23;;;;;;;6.28;4.47;;;;;;;4.07;95.54;100659.56;5055211;28;20017;-71
2021/11/30 02:42:48;;;;;;;7.22;5.03;;;;;;;4.10;95.63;100644.88;5037372;28;20364;-71
2021/11/30 02:45:13;;;;;;;6.28;4.72;;;;;;;4.21;95.52;100670.22;5055049;28;20033;-71
2021/11/30 02:47:39;;;;;;;5.72;4.45;;;;;;;4.32;94.91;100664.09;5054977;28;20021;-71
2021/11/30 02:50:04;;;;;;;5.80;4.38;;;;;;;4.26;95.08;100650.94;5054996;28;20024;-71
2021/11/30 02:52:30;;;;;;;7.90;4.47;;;;;;;4.36;95.51;100658.50;5037034;28;20384;-72
2021/11/30 02:54:55;;;;;;;6.03;4.28;;;;;;;4.42;95.75;100650.22;5036977;28;20068;-71
2021/11/30 02:57:22;;;;;;;5.82;4.40;;;;;;;4.38;95.37;100655.81;5054842;28;20380;-70
2021/11/30 02:59:50;;;;;;;5.15;3.95;;;;;;;4.41;95.35;100643.53;5054789;28;20118;-70
2021/11/30 03:02:22;;;;;;;5.45;4.05;;;;;;;4.55;95.77;100636.25;5054691;28;20475;-70
2021/11/30 03:04:50;;;;;;;5.20;4.13;;;;;;;4.36;95.26;100609.91;5054793;28;20025;-70
2021/11/30 03:07:19;;;;;;;5.30;4.00;;;;;;;4.62;95.74;100625.25;5055098;28;20028;-70
2021/11/30 03:09:44;;;;;;;4.22;3.63;;;;;;;4.62;96.02;100622.69;5036666;28;20078;-70
2021/11/30 03:12:10;;;;;;;5.68;3.60;;;;;;;4.68;95.53;100616.94;5054566;28;20036;-70
2021/11/30 03:14:37;;;;;;;5.13;4.00;;;;;;;4.77;95.76;100615.25;5036622;28;20124;-70
2021/11/30 03:17:03;;;;;;;5.22;3.58;;;;;;;4.86;95.80;100611.78;5054276;28;20059;-70
2021/11/30 03:19:29;;;;;;;5.68;3.80;;;;;;;5.00;95.48;100609.56;5054431;28;20041;-71
2021/11/30 03:21:54;;;;;;;4.43;3.65;;;;;;;5.01;95.88;100609.44;5036510;28;20074;-70
2021/11/30 03:24:20;;;;;;;5.10;3.78;;;;;;;5.10;95.90;100607.72;5036458;28;20024;-70
2021/11/30 03:26:45;;;;;;;4.90;3.90;;;;;;;5.15;96.36;100603.72;5036371;28;20064;-70
2021/11/30 03:29:11;;;;;;;5.13;3.92;;;;;;;5.17;96.46;100601.78;5036388;28;20029;-71
2021/11/30 03:34:08;;;;;;;4.95;3.63;;;;;;;5.31;96.00;100586.78;5054367;28;20037;-71
2021/11/30 03:36:35;;;;;;;5.47;3.90;;;;;;;5.47;96.39;100598.81;5054346;28;20070;-70
2021/11/30 03:39:05;;;;;;;5.35;3.85;;;;;;;5.61;96.07;100583.63;5053265;28;20033;-70
2021/11/30 03:41:32;;;;;;;5.65;3.83;;;;;;;5.77;96.50;100576.91;5054577;28;20029;-71
2021/11/30 03:43:58;;;;;;;5.63;3.75;;;;;;;5.94;96.97;100572.59;5053876;28;20025;-71
2021/11/30 03:46:23;;;;;;;5.70;3.83;;;;;;;6.20;97.44;100577.53;5053803;28;20040;-71
2021/11/30 03:48:49;;;;;;;6.10;3.42;;;;;;;6.40;97.76;100572.84;5053869;28;20024;-71
2021/11/30 03:51:14;;;;;;;6.45;3.60;;;;;;;6.59;97.98;100572.47;5054359;28;20048;-71
2021/11/30 03:53:39;;;;;;;5.60;3.50;;;;;;;6.67;97.46;100569.88;5053747;28;20025;-71
2021/11/30 03:56:05;;;;;;;8.82;3.47;;;;;;;6.80;97.63;100568.56;5053722;28;20033;-71
2021/11/30 03:58:30;;;;;;;8.93;4.00;;;;;;;6.81;97.84;100565.78;5053725;28;20052;-71
2021/11/30 04:00:56;;;;;;;9.18;4.15;;;;;;;6.88;97.21;100577.03;5053622;28;20126;-71
2021/11/30 04:03:23;;;;;;;9.68;4.45;;;;;;;6.98;97.59;100569.09;5035838;28;20025;-69
2021/11/30 04:05:49;;;;;;;8.50;4.35;;;;;;;7.07;97.14;100568.09;5035635;28;20025;-69
2021/11/30 04:08:14;;;;;;;10.45;4.70;;;;;;;6.99;97.85;100543.25;5035633;28;20021;-70
2021/11/30 04:10:39;;;;;;;8.18;4.43;;;;;;;7.11;97.55;100553.94;5035648;28;20410;-70
2021/11/30 04:13:05;;;;;;;13.82;4.75;;;;;;;7.21;97.36;100556.28;5053486;28;20083;-70
2021/11/30 04:15:30;;;;;;;13.73;4.80;;;;;;;7.21;97.61;100548.56;5053407;28;20017;-69
2021/11/30 04:17:55;;;;;;;13.65;5.07;;;;;;;7.24;97.42;100561.88;5053256;28;20040;-70
2021/11/30 04:20:21;;;;;;;10.48;5.00;;;;;;;7.34;97.22;100558.31;5035559;28;20119;-70
2021/11/30 04:22:46;;;;;;;13.38;5.20;;;;;;;7.33;97.19;100549.78;5053464;28;20031;-70
2021/11/30 04:25:13;;;;;;;10.77;5.22;;;;;;;7.31;97.70;100545.78;5035449;28;20475;-70
2021/11/30 04:27:38;;;;;;;12.35;4.97;;;;;;;7.38;97.36;100544.13;5053943;28;20032;-70
2021/11/30 04:30:06;;;;;;;13.68;5.60;;;;;;;7.35;97.76;100544.47;5053323;28;20033;-69
2021/11/30 04:32:31;;;;;;;13.38;5.60;;;;;;;7.38;97.40;100531.28;5053255;28;20075;-70
2021/11/30 04:34:57;;;;;;;13.38;5.50;;;;;;;7.42;97.26;100540.22;5053271;28;20021;-70
2021/11/30 04:37:23;;;;;;;9.55;4.97;;;;;;;7.45;97.49;100529.59;5053283;28;20017;-70
2021/11/30 04:39:48;;;;;;;14.70;5.40;;;;;;;7.47;97.42;100532.81;5053158;28;20033;-69
2021/11/30 04:42:13;;;;;;;10.95;5.10;;;;;;;7.51;97.36;100528.13;5053229;28;20044;-70
2021/11/30 04:44:46;;;;;;;8.82;4.85;;;;;;;7.51;97.37;100525.53;5053142;28;20032;-70
2021/11/30 04:47:11;;;;;;;11.45;5.05;;;;;;;7.60;97.33;100521.97;5053698;28;20075;-70
2021/11/30 04:49:51;;;;;;;14.23;5.40;;;;;;;7.45;96.99;100502.16;5035275;28;20472;-70
2021/11/30 04:52:17;;;;;;;14.60;5.10;;;;;;;7.62;97.07;100518.25;5057227;28;20104;-70
2021/11/30 04:54:42;;;;;;;11.35;4.80;;;;;;;7.61;97.93;100503.75;5057076;28;20048;-70
2021/11/30 04:57:07;;;;;;;13.93;5.07;;;;;;;7.65;97.34;100509.34;5039235;28;20032;-70
2021/11/30 04:59:33;;;;;;;15.52;4.50;;;;;;;7.65;97.01;100511.94;5057070;28;20021;-70
2021/11/30 05:01:58;;;;;;;8.90;4.20;;;;;;;7.67;97.64;100515.13;5057225;28;20380;-70
2021/11/30 05:04:24;;;;;;;10.23;4.05;;;;;;;7.72;97.47;100517.19;5056959;28;20020;-70
2021/11/30 05:06:50;;;;;;;9.30;4.10;;;;;;;7.73;97.14;100518.78;5056829;28;20071;-71
2021/11/30 05:09:15;;;;;;;10.35;4.10;;;;;;;7.73;97.65;100517.00;5056825;28;20025;-70
2021/11/30 05:11:41;;;;;;;10.07;4.07;;;;;;;7.67;97.48;100515.94;5056781;28;20020;-70
2021/11/30 05:14:06;;;;;;;11.95;4.00;;;;;;;7.75;97.25;100516.84;5038868;28;20355;-70
2021/11/30 05:16:34;;;;;;;7.50;3.60;;;;;;;7.77;97.58;100514.88;5056595;28;20021;-70
2021/11/30 05:18:59;;;;;;;14.57;4.05;;;;;;;7.80;97.33;100517.13;5056690;28;20120;-70
2021/11/30 05:21:25;;;;;;;15.15;3.80;;;;;;;7.80;97.91;100509.41;5056615;28;20060;-70
2021/11/30 05:23:53;;;;;;;10.20;3.60;;;;;;;7.79;97.53;100502.66;5056603;28;20496;-70
2021/11/30 05:26:19;;;;;;;9.77;3.95;;;;;;;7.83;97.23;100515.00;5056470;28;20017;-70
2021/11/30 05:28:44;;;;;;;7.50;3.60;;;;;;;7.88;97.15;100514.44;5056485;28;20146;-70
2021/11/30 05:31:12;;;;;;;10.73;3.60;;;;;;;7.76;97.96;100501.22;5056401;28;20085;-70
2021/11/30 05:33:37;;;;;;;10.77;3.70;;;;;;;7.88;97.12;100511.88;5056425;28;20059;-70
2021/11/30 05:36:04;;;;;;;9.30;3.72;;;;;;;7.87;97.31;100518.81;5056299;28;20396;-70
2021/11/30 05:38:30;;;;;;;9.48;3.63;;;;;;;7.89;97.79;100521.22;5056347;28;20037;-70
2021/11/30 05:40:56;;;;;;;13.00;3.85;;;;;;;7.92;97.84;100523.44;5056255;28;20025;-70
2021/11/30 05:43:21;;;;;;;11.32;4.20;;;;;;;7.96;97.96;100527.25;5056275;28;20522;-70
2021/11/30 05:45:47;;;;;;;10.20;3.58;;;;;;;7.98;97.79;100522.72;5056621;28;20021;-70
2021/11/30 05:48:13;;;;;;;10.45;3.17;;;;;;;8.01;97.17;100527.53;5056081;28;20021;-70
2021/11/30 05:50:39;;;;;;;10.73;3.65;;;;;;;7.98;97.69;100524.50;5038175;28;20032;-69
2021/11/30 05:53:05;;;;;;;10.43;3.75;;;;;;;8.04;97.21;100516.09;5056066;28;20055;-69
2021/11/30 05:55:31;;;;;;;12.15;3.55;;;;;;;8.01;97.17;100526.72;5037975;28;20021;-70
2021/11/30 05:57:56;;;;;;;10.55;4.00;;;;;;;8.02;97.58;100512.88;5037989;28;20024;-70
2021/11/30 06:00:23;;;;;;;8.75;3.47;;;;;;;8.05;97.64;100515.09;5037949;28;20021;-70
2021/11/30 06:05:24;;;;;;;8.13;3.10;;;;;;;8.09;97.74;100506.84;5056287;28;20086;-70
2021/11/30 06:07:50;;;;;;;8.55;3.30;;;;;;;8.09;97.59;100522.28;5056295;28;20105;-70
2021/11/30 06:10:16;;;;;;;8.20;3.38;;;;;;;7.93;97.72;100485.63;5038422;28;20056;-70
2021/11/30 06:12:42;;;;;;;13.45;3.22;;;;;;;8.14;97.16;100521.75;5056136;28;20032;-69
2021/11/30 06:15:08;;;;;;;11.07;3.25;;;;;;;8.16;98.01;100511.28;5055619;28;20055;-70
2021/11/30 06:17:33;;;;;;;11.13;3.60;;;;;;;8.13;97.74;100507.28;5037528;28;20057;-71
2021/11/30 06:19:59;;;;;;;8.18;3.08;;;;;;;8.07;97.93;100492.56;5056045;28;20032;-71
2021/11/30 06:22:25;;;;;;;8.65;3.33;;;;;;;8.08;97.77;100491.56;5022429;28;20041;-71
2021/11/30 06:24:50;;;;;;;9.23;3.35;;;;;;;8.20;97.79;100505.63;5056159;28;20513;-71
2021/11/30 06:27:15;;;;;;;8.80;3.20;;;;;;;8.21;97.88;100507.22;5055345;28;20033;-71
2021/11/30 06:29:41;;;;;;;7.55;2.80;;;;;;;8.17;97.43;100495.69;5037799;28;20459;-71
2021/11/30 06:32:12;;;;;;;8.88;2.83;;;;;;;8.05;98.01;100479.84;5037927;28;20029;-71
2021/11/30 06:34:38;;;;;;;7.68;3.00;;;;;;;8.14;97.69;100485.72;5056636;28;20020;-71
2021/11/30 06:37:07;;;;;;;6.07;3.28;;;;;;;8.28;97.80;100512.44;5055537;28;20043;-70
2021/11/30 06:39:33;;;;;;;7.53;2.45;;;;;;;8.26;97.82;100506.69;5037246;28;20017;-70
2021/11/30 06:41:59;;;;;;;11.90;3.40;;;;;;;8.28;97.53;100504.72;5056182;28;20053;-70
2021/11/30 06:44:24;;;;;;;14.63;2.97;;;;;;;8.29;97.67;100512.28;5054974;28;20104;-70
2021/11/30 06:46:49;;;;;;;4.53;2.28;;;;;;;8.21;97.72;100501.28;5055661;28;20032;-72
2021/11/30 06:49:15;;;;;;;6.72;2.58;;;;;;;8.34;97.70;100522.03;5037286;28;20025;-70
2021/11/30 06:51:40;;;;;;;9.55;3.10;;;;;;;8.38;97.26;100517.34;5036931;28;20025;-70
2021/11/30 06:54:05;;;;;;;18.20;4.28;;;;;;;8.38;96.67;100525.84;5036874;28;20029;-69
2021/11/30 06:56:30;;;;;;;5.88;2.80;;;;;;;8.38;97.75;100523.28;5054904;28;20147;-70
2021/11/30 06:58:56;;;;;;;9.98;3.20;;;;;;;8.34;97.63;100527.16;5054834;28;20028;-70
2021/11/30 07:01:21;;;;;;;13.20;3.28;;;;;;;8.39;97.88;100537.78;5054731;28;20020;-70
2021/11/30 07:03:48;;;;;;;10.50;3.10;;;;;;;8.36;97.48;100541.47;5036735;28;20028;-70
2021/11/30 07:06:38;;;;;;;8.35;3.35;;;;;;;8.42;97.40;100540.00;5054553;28;20028;-70
2021/11/30 07:09:15;;;;;;;14.73;3.17;;;;;;;8.43;97.31;100540.78;5054679;28;20031;-70
2021/11/30 07:14:07;;;;;;;8.95;3.00;;;;;;;8.33;97.19;100525.59;5054610;28;20242;-71
2021/11/30 07:16:33;;;;;;;12.50;2.83;;;;;;;8.46;96.97;100543.00;5036414;28;20037;-71
2021/11/30 07:18:59;;;;;;;15.68;3.00;;;;;;;8.47;97.57;100545.41;5054918;28;20020;-71
2021/11/30 07:21:26;;;;;;;13.55;3.17;;;;;;;8.48;97.07;100546.19;5036472;28;20387;-71
2021/11/30 07:23:52;;;;;;;11.65;3.10;;;;;;;8.47;97.36;100545.41;5054261;28;20489;-71
2021/11/30 07:26:17;;;;;;;10.27;2.95;;;;;;;8.44;97.29;100548.34;5054109;28;20029;-71
2021/11/30 07:28:42;;;;;;;12.25;3.35;;;;;;;8.46;97.64;100535.28;5054227;28;20067;-71
2021/11/30 07:31:11;;;;;;;7.47;2.90;;;;;;;8.49;97.36;100546.03;5036218;28;20024;-71
2021/11/30 07:33:38;;;;;;;7.05;2.88;;;;;;;8.57;97.19;100545.94;5054142;28;20525;-71
2021/11/30 07:36:05;;;;;;;7.22;2.70;;;;;;;8.53;97.38;100542.13;5053980;28;20047;-70
2021/11/30 07:38:31;;;;;;;11.20;3.03;;;;;;;8.54;97.93;100554.00;5036086;28;20057;-71
2021/11/30 07:40:57;;;;;;;10.05;3.13;;;;;;;8.56;98.09;100536.59;5053882;28;20020;-70
2021/11/30 07:43:22;;;;;;;9.25;2.80;;;;;;;8.58;97.37;100544.97;5053918;28;20051;-71
2021/11/30 07:45:48;;;;;;;8.35;3.00;;;;;;;8.61;97.19;100553.31;5053789;28;20025;-71
2021/11/30 07:48:13;;;;;;;11.15;3.05;;;;;;;8.58;97.36;100563.00;5053864;28;20025;-71
2021/11/30 07:50:38;;;;;;;8.82;2.83;;;;;;;8.59;97.44;100556.06;5055014;28;20032;-70
2021/11/30 07:53:04;;;;;;;10.30;2.63;;;;;;;8.64;97.19;100560.69;5053772;28;20103;-69
2021/11/30 07:55:30;;;;;;;13.23;3.33;;;;;;;8.69;97.46;100555.78;5053924;28;20495;-69
2021/11/30 07:57:55;;;;;;;10.52;2.95;;;;;;;8.70;96.74;100557.38;5053653;28;20035;-70
2021/11/30 08:00:20;;;;;;;10.80;2.83;;;;;;;8.69;97.31;100556.59;5053688;28;20025;-70
2021/11/30 08:02:46;;;;;;;9.73;2.63;;;;;;;8.71;96.63;100548.66;5053536;28;20537;-69
2021/11/30 08:05:12;;;;;;;8.18;2.60;;;;;;;8.56;97.05;100518.56;5053536;28;20031;-70
2021/11/30 08:07:39;;;;;;;10.77;2.65;;;;;;;8.75;97.11;100552.50;5035771;28;20398;-71
2021/11/30 08:10:09;;;;;;;9.27;2.63;;;;;;;8.75;96.54;100553.28;5053532;28;20036;-70
2021/11/30 08:12:34;;;;;;;9.18;2.50;;;;;;;8.76;96.55;100557.47;5035703;28;20024;-71
2021/11/30 08:14:59;;;;;;;8.68;2.50;;;;;;;8.76;97.04;100565.19;5053721;28;20013;-71
2021/11/30 08:17:25;;;;;;;13.10;3.00;;;;;;;8.80;97.15;100563.88;5053363;28;20072;-71
2021/11/30 08:19:50;;;;;;;13.13;3.13;;;;;;;8.86;96.92;100574.41;5035519;28;20033;-70
2021/11/30 08:22:16;;;;;;;13.90;2.67;;;;;;;8.86;97.20;100566.69;5035575;28;20472;-71
2021/11/30 08:24:41;;;;;;;11.88;2.97;;;;;;;8.87;96.32;100571.66;5035210;28;20415;-71
2021/11/30 08:27:07;;;;;;;10.75;2.60;;;;;;;8.90;97.23;100566.16;5053131;28;20464;-71
2021/11/30 08:29:35;;;;;;;14.68;3.00;;;;;;;8.93;96.25;100572.72;5053266;28;20040;-71
2021/11/30 08:32:01;;;;;;;11.07;2.88;;;;;;;8.90;96.32;100563.56;5035396;28;20025;-71
2021/11/30 08:34:26;;;;;;;8.90;2.92;;;;;;;8.97;96.96;100568.78;5053253;28;20379;-71
2021/11/30 08:36:52;;;;;;;11.27;3.50;;;;;;;8.92;97.27;100564.19;5053251;28;20052;-69
2021/11/30 08:39:17;;;;;;;12.50;3.33;;;;;;;8.92;96.74;100574.50;5035181;28;20024;-69
2021/11/30 08:41:42;;;;;;;12.43;3.00;;;;;;;8.98;97.16;100560.09;5053186;28;20020;-70
2021/11/30 08:44:08;;;;;;;12.00;3.05;;;;;;;9.03;96.11;100562.91;5035096;28;20025;-69
2021/11/30 08:46:34;;;;;;;19.40;2.90;;;;;;;9.02;96.24;100561.31;5035037;28;20128;-69
2021/11/30 08:48:59;;;;;;;16.13;2.78;;;;;;;9.01;96.67;100557.94;5053078;28;20033;-70
2021/11/30 08:51:24;;;;;;;14.05;3.08;;;;;;;9.04;96.38;100554.22;5053139;28;20086;-70
2021/11/30 08:53:50;;;;;;;13.20;3.45;;;;;;;9.05;96.37;100555.78;5052920;28;20426;-69
2021/11/30 08:56:15;;;;;;;10.93;2.95;;;;;;;9.10;96.84;100568.16;5035090;28;20035;-70
2021/11/30 08:58:41;;;;;;;10.60;2.92;;;;;;;9.09;96.32;100569.13;5053233;28;20021;-70
2021/11/30 09:01:06;;;;;;;16.20;3.10;;;;;;;9.10;96.06;100574.09;5053534;28;20083;-70
2021/11/30 09:03:32;;;;;;;19.20;2.95;;;;;;;9.04;96.51;100572.25;5052816;28;20534;-69
2021/11/30 09:05:58;;;;;;;15.32;2.92;;;;;;;9.12;96.90;100573.91;5052669;28;20549;-69
2021/11/30 09:08:23;;;;;;;15.27;2.88;;;;;;;9.19;96.26;100583.31;5034926;28;20021;-69
2021/11/30 09:10:49;;;;;;;16.55;3.30;;;;;;;9.18;95.62;100571.41;5053410;28;20036;-71
2021/11/30 09:13:15;;;;;;;15.75;3.10;;;;;;;9.33;95.25;100588.63;5052733;28;20477;-71
2021/11/30 09:15:41;;;;;;;18.50;3.10;;;;;;;9.11;95.97;100601.47;5052885;28;20103;-71
2021/11/30 09:18:07;;;;;;;4.65;1.60;;;;;;;9.05;95.41;100604.78;5052880;28;20077;-71
2021/11/30 09:20:32;;;;;;;8.48;1.55;;;;;;;8.96;95.35;100608.44;5052791;28;20029;-71
2021/11/30 09:22:59;;;;;;;4.85;1.30;;;;;;;8.96;95.69;100623.91;5053320;28;20025;-71
2021/11/30 09:25:25;;;;;;;3.05;0.88;;;;;;;8.82;95.83;100623.72;5034881;28;20017;-71
2021/11/30 09:27:52;;;;;;;2.30;0.68;;;;;;;8.66;95.38;100626.50;5034949;28;20032;-71
2021/11/30 09:30:20;;;;;;;3.85;1.10;;;;;;;8.62;95.36;100632.19;5034887;28;20059;-71
2021/11/30 09:32:46;;;;;;;3.90;0.57;;;;;;;8.45;95.50;100611.75;5034861;28;20025;-71
2021/11/30 09:35:15;;;;;;;1.83;0.60;;;;;;;8.51;96.03;100626.47;5052718;28;20103;-71
2021/11/30 09:37:42;;;;;;;7.35;0.93;;;;;;;8.51;95.94;100625.69;5054009;28;20482;-71
2021/11/30 09:40:14;;;;;;;5.25;1.17;;;;;;;8.47;96.30;100625.25;5056269;28;20104;-71
2021/11/30 09:42:40;;;;;;;4.68;1.17;;;;;;;8.51;95.77;100635.97;5056586;28;20029;-71
2021/11/30 09:45:09;;;;;;;3.90;0.85;;;;;;;8.46;95.86;100631.38;5038265;28;20021;-71
2021/11/30 09:47:35;;;;;;;2.90;0.95;;;;;;;8.51;95.76;100641.13;5056003;28;20029;-71
2021/11/30 09:50:01;;;;;;;5.53;0.60;;;;;;;8.56;95.45;100644.00;5056050;28;20024;-71
2021/11/30 09:52:27;;;;;;;4.30;1.00;;;;;;;8.50;96.08;100644.69;5056084;28;20463;-71
2021/11/30 09:54:52;;;;;;;2.90;0.82;;;;;;;8.52;96.26;100642.75;5055873;28;20024;-71
2021/11/30 09:57:17;;;;;;;4.03;0.75;;;;;;;8.54;95.78;100643.34;5038104;28;20028;-71
2021/11/30 09:59:46;;;;;;;1.85;0.80;;;;;;;8.65;95.93;100649.84;5038107;28;20464;-71
2021/11/30 10:02:12;;;;;;;2.47;0.90;;;;;;;8.79;95.00;100644.69;5055876;28;20024;-71
2021/11/30 10:04:39;;;;;;;3.92;1.40;;;;;;;8.79;95.24;100646.47;5055836;28;20487;-71
2021/11/30 10:07:04;;;;;;;3.33;1.10;;;;;;;8.69;94.79;100633.88;5037900;28;20112;-71
2021/11/30 10:09:30;;;;;;;1.27;0.60;;;;;;;8.70;94.81;100645.78;5037880;28;20490;-71
2021/11/30 10:11:58;;;;;;;2.05;0.90;;;;;;;8.73;94.81;100647.19;5055879;28;20054;-71
2021/11/30 10:14:27;;;;;;;3.95;1.25;;;;;;;8.73;94.78;100660.88;5037832;28;20400;-71
2021/11/30 10:17:10;;;;;;;3.25;0.95;;;;;;;8.58;94.32;100655.72;5037559;28;20392;-71
2021/11/30 10:19:35;;;;;;;3.70;0.75;;;;;;;8.55;94.41;100653.50;5055639;28;20033;-71
2021/11/30 10:22:00;;;;;;;3.03;1.15;;;;;;;8.39;95.34;100655.44;5055497;28;20514;-70
2021/11/30 10:24:26;;;;;;;2.65;1.20;;;;;;;8.48;95.06;100655.16;5056038;28;20155;-70
2021/11/30 10:26:54;;;;;;;6.38;1.67;;;;;;;8.54;94.59;100649.31;5055348;28;20029;-72
2021/11/30 10:29:20;;;;;;;3.97;1.45;;;;;;;8.57;93.75;100656.72;5037465;28;20017;-70
2021/11/30 10:31:48;;;;;;;2.60;0.80;;;;;;;8.50;94.10;100644.69;5055503;28;20033;-71
2021/11/30 10:34:23;;;;;;;5.00;1.58;;;;;;;8.72;93.74;100650.75;5055928;28;20032;-72
2021/11/30 10:36:57;;;;;;;4.60;1.35;;;;;;;8.65;93.44;100642.91;5037848;28;20104;-71
2021/11/30 10:39:25;;;;;;;2.63;1.10;;;;;;;8.62;93.67;100645.06;5055791;28;20032;-71
2021/11/30 10:41:51;;;;;;;5.63;1.42;;;;;;;8.69;93.36;100653.66;5055076;28;20021;-72
2021/11/30 10:44:29;;;;;;;3.75;1.23;;;;;;;8.62;93.61;100652.78;5056480;28;20112;-74
2021/11/30 10:47:10;;;;;;;3.90;1.10;;;;;;;8.57;94.36;100648.16;5055469;28;20021;-72
2021/11/30 10:49:44;;;;;;;5.28;1.20;;;;;;;8.67;93.97;100656.44;5054624;28;20032;-72
2021/11/30 10:52:14;;;;;;;4.93;1.00;;;;;;;8.59;94.15;100653.94;5054834;28;20039;-71
2021/11/30 10:54:40;;;;;;;6.05;1.30;;;;;;;8.62;94.13;100651.00;5055370;28;20020;-71
2021/11/30 10:57:05;;;;;;;3.85;1.13;;;;;;;8.55;95.05;100653.50;5055030;28;20100;-73
2021/11/30 10:59:30;;;;;;;5.93;1.20;;;;;;;8.61;94.61;100643.47;5054807;28;20464;-72
2021/11/30 11:01:56;;;;;;;4.03;1.00;;;;;;;8.68;94.57;100654.66;5054672;28;20025;-72
2021/11/30 11:04:35;;;;;;;3.25;1.23;;;;;;;8.63;94.85;100649.22;5036782;28;20115;-71
2021/11/30 11:07:12;;;;;;;5.75;1.40;;;;;;;8.66;94.52;100651.44;5036588;28;20155;-71
2021/11/30 11:09:52;;;;;;;8.60;1.60;;;;;;;8.61;94.40;100640.91;5054545;28;20444;-71
2021/11/30 11:12:27;;;;;;;6.32;1.60;;;;;;;8.64;95.09;100637.97;5054462;28;20021;-71
2021/11/30 11:14:54;;;;;;;7.45;1.58;;;;;;;8.51;95.11;100647.09;5054875;28;20039;-71
2021/11/30 11:17:29;;;;;;;4.63;1.73;;;;;;;8.56;95.26;100647.34;5054109;28;20037;-72
2021/11/30 11:19:55;;;;;;;6.47;2.08;;;;;;;8.61;95.34;100646.84;5036634;28;20029;-71
2021/11/30 11:22:24;;;;;;;3.97;1.50;;;;;;;8.61;95.59;100646.84;5054862;28;20021;-72
2021/11/30 11:24:54;;;;;;;7.38;2.40;;;;;;;8.69;94.81;100649.34;5054350;28;20020;-71
2021/11/30 11:27:39;;;;;;;6.05;2.30;;;;;;;8.74;94.62;100643.63;5054020;28;20116;-73
2021/11/30 11:30:07;;;;;;;6.75;2.25;;;;;;;8.81;94.78;100642.75;5054223;28;20021;-71
2021/11/30 11:32:33;;;;;;;6.00;1.98;;;;;;;8.83;94.21;100642.56;5036140;28;20029;-72
2021/11/30 11:34:59;;;;;;;6.30;1.90;;;;;;;8.88;94.52;100637.69;5036508;28;20029;-74
2021/11/30 11:37:24;;;;;;;7.20;2.17;;;;;;;8.82;94.04;100633.25;5054245;28;20528;-72
2021/11/30 11:39:50;;;;;;;3.60;2.00;;;;;;;8.88;94.43;100634.31;5054128;28;20024;-72